sensor_id;sensor_type;location;lat;lon;timestamp;P1;durP1;ratioP1;P2;durP2;ratioP2
3995;SDS011;2012;49.794;9.722;2023-02-08T00:00:04;27.13;;;14.30;;
3995;SDS011;2012;49.794;9.722;2023-02-08T00:02:32;29.23;;;14.20;;
3995;SDS011;2012;49.794;9.722;2023-02-08T00:04:58;21.60;;;12.20;;
3995;SDS011;2012;49.794;9.722;2023-02-08T00:07:25;20.03;;;11.60;;
3995;SDS011;2012;49.794;9.722;2023-02-08T00:09:52;18.10;;;11.77;;
3995;SDS011;2012;49.794;9.722;2023-02-08T00:12:18;18.83;;;11.60;;
3995;SDS011;2012;49.794;9.722;2023-02-08T00:14:45;28.27;;;13.07;;
3995;SDS011;2012;49.794;9.722;2023-02-08T00:17:12;16.87;;;11.00;;
3995;SDS011;2012;49.794;9.722;2023-02-08T00:19:39;17.77;;;10.70;;
3995;SDS011;2012;49.794;9.722;2023-02-08T00:22:05;19.03;;;10.30;;
3995;SDS011;2012;49.794;9.722;2023-02-08T00:24:32;17.07;;;10.20;;
3995;SDS011;2012;49.794;9.722;2023-02-08T00:26:59;19.80;;;10.60;;
3995;SDS011;2012;49.794;9.722;2023-02-08T00:29:25;23.60;;;10.60;;
3995;SDS011;2012;49.794;9.722;2023-02-08T00:31:52;15.13;;;9.50;;
3995;SDS011;2012;49.794;9.722;2023-02-08T00:34:19;15.00;;;9.63;;
3995;SDS011;2012;49.794;9.722;2023-02-08T00:36:45;16.13;;;9.67;;
3995;SDS011;2012;49.794;9.722;2023-02-08T00:39:12;15.23;;;9.50;;
3995;SDS011;2012;49.794;9.722;2023-02-08T00:41:39;19.20;;;10.13;;
3995;SDS011;2012;49.794;9.722;2023-02-08T00:44:06;17.23;;;8.53;;
3995;SDS011;2012;49.794;9.722;2023-02-08T00:46:32;15.20;;;9.83;;
3995;SDS011;2012;49.794;9.722;2023-02-08T00:48:59;15.67;;;9.60;;
3995;SDS011;2012;49.794;9.722;2023-02-08T00:51:26;19.57;;;10.10;;
3995;SDS011;2012;49.794;9.722;2023-02-08T00:53:52;16.23;;;9.17;;
3995;SDS011;2012;49.794;9.722;2023-02-08T00:56:19;19.87;;;9.90;;
3995;SDS011;2012;49.794;9.722;2023-02-08T00:58:46;17.70;;;10.33;;
3995;SDS011;2012;49.794;9.722;2023-02-08T01:01:13;15.00;;;9.10;;
3995;SDS011;2012;49.794;9.722;2023-02-08T01:03:40;14.03;;;9.13;;
3995;SDS011;2012;49.794;9.722;2023-02-08T01:06:09;14.07;;;9.00;;
3995;SDS011;2012;49.794;9.722;2023-02-08T01:08:39;16.00;;;9.87;;
3995;SDS011;2012;49.794;9.722;2023-02-08T01:11:07;17.07;;;8.70;;
3995;SDS011;2012;49.794;9.722;2023-02-08T01:13:47;11.50;;;8.63;;
3995;SDS011;2012;49.794;9.722;2023-02-08T01:16:15;15.63;;;9.10;;
3995;SDS011;2012;49.794;9.722;2023-02-08T01:18:44;14.30;;;8.70;;
3995;SDS011;2012;49.794;9.722;2023-02-08T01:21:13;12.57;;;8.57;;
3995;SDS011;2012;49.794;9.722;2023-02-08T01:23:42;14.70;;;9.03;;
3995;SDS011;2012;49.794;9.722;2023-02-08T01:26:10;13.23;;;8.03;;
3995;SDS011;2012;49.794;9.722;2023-02-08T01:28:38;13.20;;;8.40;;
3995;SDS011;2012;49.794;9.722;2023-02-08T01:31:15;16.70;;;9.57;;
3995;SDS011;2012;49.794;9.722;2023-02-08T01:33:47;15.20;;;9.63;;
3995;SDS011;2012;49.794;9.722;2023-02-08T01:36:14;19.00;;;10.40;;
3995;SDS011;2012;49.794;9.722;2023-02-08T01:38:42;19.97;;;10.90;;
3995;SDS011;2012;49.794;9.722;2023-02-08T01:41:13;16.40;;;9.67;;
3995;SDS011;2012;49.794;9.722;2023-02-08T01:43:59;18.63;;;10.07;;
3995;SDS011;2012;49.794;9.722;2023-02-08T01:46:39;16.30;;;10.03;;
3995;SDS011;2012;49.794;9.722;2023-02-08T01:49:09;16.33;;;9.80;;
3995;SDS011;2012;49.794;9.722;2023-02-08T01:51:46;23.27;;;10.20;;
3995;SDS011;2012;49.794;9.722;2023-02-08T01:54:18;20.67;;;9.70;;
3995;SDS011;2012;49.794;9.722;2023-02-08T01:56:47;24.20;;;9.07;;
3995;SDS011;2012;49.794;9.722;2023-02-08T01:59:37;15.77;;;9.60;;
3995;SDS011;2012;49.794;9.722;2023-02-08T02:02:08;20.00;;;10.57;;
3995;SDS011;2012;49.794;9.722;2023-02-08T02:04:38;18.50;;;8.80;;
3995;SDS011;2012;49.794;9.722;2023-02-08T02:07:05;12.23;;;8.97;;
3995;SDS011;2012;49.794;9.722;2023-02-08T02:09:35;17.20;;;10.13;;
3995;SDS011;2012;49.794;9.722;2023-02-08T02:12:06;16.40;;;9.67;;
3995;SDS011;2012;49.794;9.722;2023-02-08T02:14:34;16.80;;;10.23;;
3995;SDS011;2012;49.794;9.722;2023-02-08T02:17:03;19.53;;;9.97;;
3995;SDS011;2012;49.794;9.722;2023-02-08T02:38:56;16.30;;;9.33;;
3995;SDS011;2012;49.794;9.722;2023-02-08T02:45:05;24.13;;;9.53;;
3995;SDS011;2012;49.794;9.722;2023-02-08T02:47:59;15.73;;;9.03;;
3995;SDS011;2012;49.794;9.722;2023-02-08T02:50:32;14.60;;;9.50;;
3995;SDS011;2012;49.794;9.722;2023-02-08T02:53:19;15.53;;;8.83;;
3995;SDS011;2012;49.794;9.722;2023-02-08T02:56:08;17.90;;;8.60;;
3995;SDS011;2012;49.794;9.722;2023-02-08T02:58:40;19.67;;;9.50;;
3995;SDS011;2012;49.794;9.722;2023-02-08T03:01:09;15.17;;;9.10;;
3995;SDS011;2012;49.794;9.722;2023-02-08T03:03:36;16.27;;;8.67;;
3995;SDS011;2012;49.794;9.722;2023-02-08T03:06:09;16.40;;;9.30;;
3995;SDS011;2012;49.794;9.722;2023-02-08T03:08:59;13.70;;;8.73;;
3995;SDS011;2012;49.794;9.722;2023-02-08T03:11:35;14.20;;;8.57;;
3995;SDS011;2012;49.794;9.722;2023-02-08T03:14:19;15.07;;;8.80;;
3995;SDS011;2012;49.794;9.722;2023-02-08T03:19:44;26.87;;;10.00;;
3995;SDS011;2012;49.794;9.722;2023-02-08T03:22:22;16.57;;;9.37;;
3995;SDS011;2012;49.794;9.722;2023-02-08T03:25:02;17.40;;;9.67;;
3995;SDS011;2012;49.794;9.722;2023-02-08T03:27:36;19.63;;;9.50;;
3995;SDS011;2012;49.794;9.722;2023-02-08T03:30:27;17.00;;;9.30;;
3995;SDS011;2012;49.794;9.722;2023-02-08T03:33:13;16.10;;;9.07;;
3995;SDS011;2012;49.794;9.722;2023-02-08T03:35:46;15.50;;;8.93;;
3995;SDS011;2012;49.794;9.722;2023-02-08T03:38:31;16.40;;;9.77;;
3995;SDS011;2012;49.794;9.722;2023-02-08T03:41:03;18.67;;;10.27;;
3995;SDS011;2012;49.794;9.722;2023-02-08T03:43:36;14.13;;;9.23;;
3995;SDS011;2012;49.794;9.722;2023-02-08T03:46:12;21.53;;;9.80;;
3995;SDS011;2012;49.794;9.722;2023-02-08T03:48:49;15.47;;;8.97;;
3995;SDS011;2012;49.794;9.722;2023-02-08T03:51:19;17.43;;;9.97;;
3995;SDS011;2012;49.794;9.722;2023-02-08T03:53:48;14.70;;;9.30;;
3995;SDS011;2012;49.794;9.722;2023-02-08T03:56:19;18.77;;;9.60;;
3995;SDS011;2012;49.794;9.722;2023-02-08T03:58:53;17.93;;;8.67;;
3995;SDS011;2012;49.794;9.722;2023-02-08T04:01:25;15.13;;;8.60;;
3995;SDS011;2012;49.794;9.722;2023-02-08T04:04:01;17.40;;;9.60;;
3995;SDS011;2012;49.794;9.722;2023-02-08T04:06:29;13.83;;;9.13;;
3995;SDS011;2012;49.794;9.722;2023-02-08T04:08:56;13.70;;;8.20;;
3995;SDS011;2012;49.794;9.722;2023-02-08T04:11:22;15.30;;;9.30;;
3995;SDS011;2012;49.794;9.722;2023-02-08T04:13:49;16.90;;;9.07;;
3995;SDS011;2012;49.794;9.722;2023-02-08T04:16:16;14.57;;;8.97;;
3995;SDS011;2012;49.794;9.722;2023-02-08T04:18:42;14.40;;;9.63;;
3995;SDS011;2012;49.794;9.722;2023-02-08T04:21:09;14.73;;;8.80;;
3995;SDS011;2012;49.794;9.722;2023-02-08T04:23:36;14.57;;;9.13;;
3995;SDS011;2012;49.794;9.722;2023-02-08T04:26:02;14.17;;;8.43;;
3995;SDS011;2012;49.794;9.722;2023-02-08T04:28:29;15.20;;;9.03;;
3995;SDS011;2012;49.794;9.722;2023-02-08T04:30:56;15.13;;;9.30;;
3995;SDS011;2012;49.794;9.722;2023-02-08T04:33:23;16.57;;;8.43;;
3995;SDS011;2012;49.794;9.722;2023-02-08T04:35:50;19.97;;;8.57;;
3995;SDS011;2012;49.794;9.722;2023-02-08T04:38:17;12.80;;;8.40;;
3995;SDS011;2012;49.794;9.722;2023-02-08T04:40:44;15.60;;;8.97;;
3995;SDS011;2012;49.794;9.722;2023-02-08T04:43:10;23.90;;;9.33;;
3995;SDS011;2012;49.794;9.722;2023-02-08T04:45:37;17.53;;;8.77;;
3995;SDS011;2012;49.794;9.722;2023-02-08T04:48:04;15.17;;;9.30;;
3995;SDS011;2012;49.794;9.722;2023-02-08T04:50:32;14.40;;;9.30;;
3995;SDS011;2012;49.794;9.722;2023-02-08T04:53:00;27.77;;;9.30;;
3995;SDS011;2012;49.794;9.722;2023-02-08T04:55:27;17.70;;;10.00;;
3995;SDS011;2012;49.794;9.722;2023-02-08T04:57:53;15.57;;;8.37;;
3995;SDS011;2012;49.794;9.722;2023-02-08T05:00:20;11.67;;;8.00;;
3995;SDS011;2012;49.794;9.722;2023-02-08T05:02:50;15.27;;;8.73;;
3995;SDS011;2012;49.794;9.722;2023-02-08T05:05:20;15.03;;;8.67;;
3995;SDS011;2012;49.794;9.722;2023-02-08T05:07:47;16.73;;;8.83;;
3995;SDS011;2012;49.794;9.722;2023-02-08T05:10:14;15.33;;;8.03;;
3995;SDS011;2012;49.794;9.722;2023-02-08T05:12:41;15.70;;;8.90;;
3995;SDS011;2012;49.794;9.722;2023-02-08T05:15:10;15.20;;;8.87;;
3995;SDS011;2012;49.794;9.722;2023-02-08T05:17:37;15.40;;;8.73;;
3995;SDS011;2012;49.794;9.722;2023-02-08T05:20:04;14.40;;;8.13;;
3995;SDS011;2012;49.794;9.722;2023-02-08T05:22:31;15.37;;;9.80;;
3995;SDS011;2012;49.794;9.722;2023-02-08T05:24:58;18.77;;;9.80;;
3995;SDS011;2012;49.794;9.722;2023-02-08T05:27:25;16.70;;;9.40;;
3995;SDS011;2012;49.794;9.722;2023-02-08T05:29:52;12.20;;;8.20;;
3995;SDS011;2012;49.794;9.722;2023-02-08T05:32:19;17.00;;;9.57;;
3995;SDS011;2012;49.794;9.722;2023-02-08T05:34:45;14.60;;;9.23;;
3995;SDS011;2012;49.794;9.722;2023-02-08T05:37:13;13.83;;;7.90;;
3995;SDS011;2012;49.794;9.722;2023-02-08T05:39:39;12.73;;;8.40;;
3995;SDS011;2012;49.794;9.722;2023-02-08T05:42:06;13.47;;;7.67;;
3995;SDS011;2012;49.794;9.722;2023-02-08T05:44:33;14.50;;;9.20;;
3995;SDS011;2012;49.794;9.722;2023-02-08T05:46:59;14.57;;;9.23;;
3995;SDS011;2012;49.794;9.722;2023-02-08T05:49:27;19.83;;;9.17;;
3995;SDS011;2012;49.794;9.722;2023-02-08T05:51:54;16.30;;;8.60;;
3995;SDS011;2012;49.794;9.722;2023-02-08T05:54:20;15.03;;;8.73;;
3995;SDS011;2012;49.794;9.722;2023-02-08T05:56:47;15.37;;;7.90;;
3995;SDS011;2012;49.794;9.722;2023-02-08T05:59:14;13.60;;;7.93;;
3995;SDS011;2012;49.794;9.722;2023-02-08T06:01:40;12.57;;;8.63;;
3995;SDS011;2012;49.794;9.722;2023-02-08T06:04:07;12.80;;;8.33;;
3995;SDS011;2012;49.794;9.722;2023-02-08T06:06:34;15.80;;;8.63;;
3995;SDS011;2012;49.794;9.722;2023-02-08T06:09:00;16.00;;;9.07;;
3995;SDS011;2012;49.794;9.722;2023-02-08T06:11:27;12.90;;;8.00;;
3995;SDS011;2012;49.794;9.722;2023-02-08T06:13:54;13.53;;;6.93;;
3995;SDS011;2012;49.794;9.722;2023-02-08T06:16:21;17.10;;;10.07;;
3995;SDS011;2012;49.794;9.722;2023-02-08T06:18:47;14.57;;;9.10;;
3995;SDS011;2012;49.794;9.722;2023-02-08T06:21:14;13.70;;;8.00;;
3995;SDS011;2012;49.794;9.722;2023-02-08T06:23:41;17.90;;;9.03;;
3995;SDS011;2012;49.794;9.722;2023-02-08T06:26:07;14.47;;;7.90;;
3995;SDS011;2012;49.794;9.722;2023-02-08T06:28:34;21.30;;;9.07;;
3995;SDS011;2012;49.794;9.722;2023-02-08T06:31:01;20.97;;;8.70;;
3995;SDS011;2012;49.794;9.722;2023-02-08T06:33:27;9.60;;;6.90;;
3995;SDS011;2012;49.794;9.722;2023-02-08T06:35:54;12.43;;;7.70;;
3995;SDS011;2012;49.794;9.722;2023-02-08T06:38:21;24.23;;;7.43;;
3995;SDS011;2012;49.794;9.722;2023-02-08T06:40:48;14.87;;;8.10;;
3995;SDS011;2012;49.794;9.722;2023-02-08T06:43:15;11.40;;;7.50;;
3995;SDS011;2012;49.794;9.722;2023-02-08T06:45:45;16.67;;;7.27;;
3995;SDS011;2012;49.794;9.722;2023-02-08T06:48:12;13.50;;;7.20;;
3995;SDS011;2012;49.794;9.722;2023-02-08T06:50:39;10.57;;;7.13;;
3995;SDS011;2012;49.794;9.722;2023-02-08T06:53:06;10.43;;;6.57;;
3995;SDS011;2012;49.794;9.722;2023-02-08T06:55:33;13.07;;;8.83;;
3995;SDS011;2012;49.794;9.722;2023-02-08T06:58:00;15.97;;;7.47;;
3995;SDS011;2012;49.794;9.722;2023-02-08T07:00:27;16.40;;;8.00;;
3995;SDS011;2012;49.794;9.722;2023-02-08T07:02:54;16.07;;;8.63;;
3995;SDS011;2012;49.794;9.722;2023-02-08T07:05:20;11.53;;;7.50;;
3995;SDS011;2012;49.794;9.722;2023-02-08T07:07:47;17.43;;;7.87;;
3995;SDS011;2012;49.794;9.722;2023-02-08T07:10:14;15.13;;;8.20;;
3995;SDS011;2012;49.794;9.722;2023-02-08T07:12:41;23.40;;;9.33;;
3995;SDS011;2012;49.794;9.722;2023-02-08T07:15:08;11.60;;;8.13;;
3995;SDS011;2012;49.794;9.722;2023-02-08T07:17:38;14.70;;;8.87;;
3995;SDS011;2012;49.794;9.722;2023-02-08T07:20:05;18.53;;;8.40;;
3995;SDS011;2012;49.794;9.722;2023-02-08T07:22:32;17.00;;;8.70;;
3995;SDS011;2012;49.794;9.722;2023-02-08T07:24:59;10.50;;;7.73;;
3995;SDS011;2012;49.794;9.722;2023-02-08T07:27:26;14.53;;;7.37;;
3995;SDS011;2012;49.794;9.722;2023-02-08T07:29:52;28.03;;;7.70;;
3995;SDS011;2012;49.794;9.722;2023-02-08T07:32:19;12.83;;;8.90;;
3995;SDS011;2012;49.794;9.722;2023-02-08T07:34:46;11.80;;;8.03;;
3995;SDS011;2012;49.794;9.722;2023-02-08T07:37:12;21.43;;;9.63;;
3995;SDS011;2012;49.794;9.722;2023-02-08T07:39:39;29.00;;;17.30;;
3995;SDS011;2012;49.794;9.722;2023-02-08T07:42:09;21.57;;;12.13;;
3995;SDS011;2012;49.794;9.722;2023-02-08T07:44:37;20.60;;;12.10;;
3995;SDS011;2012;49.794;9.722;2023-02-08T07:47:04;23.13;;;11.60;;
3995;SDS011;2012;49.794;9.722;2023-02-08T07:49:32;25.23;;;12.63;;
3995;SDS011;2012;49.794;9.722;2023-02-08T07:51:59;17.77;;;10.70;;
3995;SDS011;2012;49.794;9.722;2023-02-08T07:54:27;18.50;;;10.77;;
3995;SDS011;2012;49.794;9.722;2023-02-08T07:56:54;20.90;;;11.83;;
3995;SDS011;2012;49.794;9.722;2023-02-08T07:59:21;19.20;;;11.17;;
3995;SDS011;2012;49.794;9.722;2023-02-08T08:01:48;20.90;;;12.20;;
3995;SDS011;2012;49.794;9.722;2023-02-08T08:04:15;20.60;;;11.50;;
3995;SDS011;2012;49.794;9.722;2023-02-08T08:06:41;22.93;;;11.43;;
3995;SDS011;2012;49.794;9.722;2023-02-08T08:09:08;25.90;;;11.50;;
3995;SDS011;2012;49.794;9.722;2023-02-08T08:11:35;18.90;;;11.10;;
3995;SDS011;2012;49.794;9.722;2023-02-08T08:14:02;23.07;;;12.23;;
3995;SDS011;2012;49.794;9.722;2023-02-08T08:16:28;28.83;;;14.40;;
3995;SDS011;2012;49.794;9.722;2023-02-08T08:18:55;22.70;;;13.07;;
3995;SDS011;2012;49.794;9.722;2023-02-08T08:21:22;27.33;;;13.27;;
3995;SDS011;2012;49.794;9.722;2023-02-08T08:23:48;26.97;;;14.50;;
3995;SDS011;2012;49.794;9.722;2023-02-08T08:26:16;26.57;;;14.00;;
3995;SDS011;2012;49.794;9.722;2023-02-08T08:28:44;26.93;;;15.13;;
3995;SDS011;2012;49.794;9.722;2023-02-08T08:31:13;26.03;;;15.03;;
3995;SDS011;2012;49.794;9.722;2023-02-08T08:33:45;25.43;;;15.37;;
3995;SDS011;2012;49.794;9.722;2023-02-08T08:36:12;36.00;;;13.60;;
3995;SDS011;2012;49.794;9.722;2023-02-08T08:38:39;26.43;;;12.87;;
3995;SDS011;2012;49.794;9.722;2023-02-08T08:41:10;31.53;;;14.67;;
3995;SDS011;2012;49.794;9.722;2023-02-08T08:43:40;20.93;;;11.77;;
3995;SDS011;2012;49.794;9.722;2023-02-08T08:46:07;24.07;;;11.70;;
3995;SDS011;2012;49.794;9.722;2023-02-08T08:48:34;17.30;;;10.53;;
3995;SDS011;2012;49.794;9.722;2023-02-08T08:51:02;26.87;;;13.50;;
3995;SDS011;2012;49.794;9.722;2023-02-08T08:53:29;20.90;;;11.87;;
3995;SDS011;2012;49.794;9.722;2023-02-08T08:55:55;24.33;;;12.77;;
3995;SDS011;2012;49.794;9.722;2023-02-08T08:58:22;24.17;;;12.07;;
3995;SDS011;2012;49.794;9.722;2023-02-08T09:00:49;24.03;;;12.30;;
3995;SDS011;2012;49.794;9.722;2023-02-08T09:03:16;24.73;;;12.70;;
3995;SDS011;2012;49.794;9.722;2023-02-08T09:05:43;25.57;;;13.90;;
3995;SDS011;2012;49.794;9.722;2023-02-08T09:08:11;30.17;;;15.63;;
3995;SDS011;2012;49.794;9.722;2023-02-08T09:10:38;49.53;;;17.43;;
3995;SDS011;2012;49.794;9.722;2023-02-08T09:13:06;30.43;;;14.90;;
3995;SDS011;2012;49.794;9.722;2023-02-08T09:15:33;30.87;;;16.13;;
3995;SDS011;2012;49.794;9.722;2023-02-08T09:18:04;28.70;;;14.30;;
3995;SDS011;2012;49.794;9.722;2023-02-08T09:20:31;32.13;;;13.50;;
3995;SDS011;2012;49.794;9.722;2023-02-08T09:22:57;27.93;;;14.43;;
3995;SDS011;2012;49.794;9.722;2023-02-08T09:25:24;27.10;;;14.67;;
3995;SDS011;2012;49.794;9.722;2023-02-08T09:27:52;28.60;;;15.70;;
3995;SDS011;2012;49.794;9.722;2023-02-08T09:30:19;24.27;;;13.60;;
3995;SDS011;2012;49.794;9.722;2023-02-08T09:32:45;23.57;;;13.90;;
3995;SDS011;2012;49.794;9.722;2023-02-08T09:35:12;21.20;;;13.37;;
3995;SDS011;2012;49.794;9.722;2023-02-08T09:37:40;27.03;;;14.63;;
3995;SDS011;2012;49.794;9.722;2023-02-08T09:40:11;25.77;;;14.40;;
3995;SDS011;2012;49.794;9.722;2023-02-08T09:42:58;28.23;;;14.97;;
3995;SDS011;2012;49.794;9.722;2023-02-08T09:45:50;28.20;;;13.70;;
3995;SDS011;2012;49.794;9.722;2023-02-08T09:48:28;24.77;;;14.00;;
3995;SDS011;2012;49.794;9.722;2023-02-08T09:53:52;28.23;;;13.83;;
3995;SDS011;2012;49.794;9.722;2023-02-08T09:56:25;24.23;;;14.07;;
3995;SDS011;2012;49.794;9.722;2023-02-08T09:58:55;25.17;;;14.03;;
3995;SDS011;2012;49.794;9.722;2023-02-08T10:01:24;37.03;;;14.43;;
3995;SDS011;2012;49.794;9.722;2023-02-08T10:03:55;24.17;;;13.23;;
3995;SDS011;2012;49.794;9.722;2023-02-08T10:06:29;25.80;;;14.80;;
3995;SDS011;2012;49.794;9.722;2023-02-08T10:08:56;27.03;;;14.83;;
3995;SDS011;2012;49.794;9.722;2023-02-08T10:17:20;29.13;;;15.67;;
3995;SDS011;2012;49.794;9.722;2023-02-08T10:20:08;30.67;;;15.53;;
3995;SDS011;2012;49.794;9.722;2023-02-08T10:30:56;22.40;;;14.37;;
3995;SDS011;2012;49.794;9.722;2023-02-08T10:33:42;27.57;;;14.77;;
3995;SDS011;2012;49.794;9.722;2023-02-08T10:36:34;33.97;;;17.10;;
3995;SDS011;2012;49.794;9.722;2023-02-08T10:39:17;28.37;;;16.50;;
3995;SDS011;2012;49.794;9.722;2023-02-08T10:41:49;28.80;;;15.27;;
3995;SDS011;2012;49.794;9.722;2023-02-08T10:47:06;36.20;;;16.20;;
3995;SDS011;2012;49.794;9.722;2023-02-08T10:49:58;28.77;;;14.00;;
3995;SDS011;2012;49.794;9.722;2023-02-08T10:52:41;27.43;;;14.23;;
3995;SDS011;2012;49.794;9.722;2023-02-08T10:55:15;36.60;;;17.47;;
3995;SDS011;2012;49.794;9.722;2023-02-08T10:57:44;45.00;;;20.63;;
3995;SDS011;2012;49.794;9.722;2023-02-08T11:00:26;55.40;;;22.73;;
3995;SDS011;2012;49.794;9.722;2023-02-08T11:02:57;41.77;;;17.70;;
3995;SDS011;2012;49.794;9.722;2023-02-08T11:05:32;31.97;;;15.73;;
3995;SDS011;2012;49.794;9.722;2023-02-08T11:08:04;27.80;;;15.30;;
3995;SDS011;2012;49.794;9.722;2023-02-08T11:11:04;37.77;;;19.57;;
3995;SDS011;2012;49.794;9.722;2023-02-08T11:13:37;38.70;;;18.70;;
3995;SDS011;2012;49.794;9.722;2023-02-08T11:16:06;35.93;;;17.60;;
3995;SDS011;2012;49.794;9.722;2023-02-08T11:18:45;35.20;;;18.97;;
3995;SDS011;2012;49.794;9.722;2023-02-08T11:23:55;30.90;;;15.97;;
3995;SDS011;2012;49.794;9.722;2023-02-08T11:26:29;34.60;;;16.83;;
3995;SDS011;2012;49.794;9.722;2023-02-08T11:29:18;33.63;;;17.60;;
3995;SDS011;2012;49.794;9.722;2023-02-08T11:32:00;26.33;;;15.27;;
3995;SDS011;2012;49.794;9.722;2023-02-08T11:37:04;28.67;;;15.50;;
3995;SDS011;2012;49.794;9.722;2023-02-08T11:44:46;28.10;;;15.43;;
3995;SDS011;2012;49.794;9.722;2023-02-08T11:47:15;30.10;;;14.50;;
3995;SDS011;2012;49.794;9.722;2023-02-08T11:49:52;28.20;;;14.90;;
3995;SDS011;2012;49.794;9.722;2023-02-08T11:52:24;23.20;;;15.20;;
3995;SDS011;2012;49.794;9.722;2023-02-08T11:57:52;27.20;;;14.67;;
3995;SDS011;2012;49.794;9.722;2023-02-08T12:00:26;24.47;;;14.67;;
3995;SDS011;2012;49.794;9.722;2023-02-08T12:02:59;24.93;;;14.80;;
3995;SDS011;2012;49.794;9.722;2023-02-08T12:05:56;28.43;;;16.10;;
3995;SDS011;2012;49.794;9.722;2023-02-08T12:11:49;24.03;;;14.03;;
3995;SDS011;2012;49.794;9.722;2023-02-08T12:14:31;27.17;;;14.60;;
3995;SDS011;2012;49.794;9.722;2023-02-08T12:20:02;22.87;;;14.77;;
3995;SDS011;2012;49.794;9.722;2023-02-08T12:25:44;25.00;;;14.47;;
3995;SDS011;2012;49.794;9.722;2023-02-08T12:28:57;24.43;;;13.90;;
3995;SDS011;2012;49.794;9.722;2023-02-08T12:34:00;25.77;;;15.10;;
3995;SDS011;2012;49.794;9.722;2023-02-08T12:36:49;36.30;;;16.83;;
3995;SDS011;2012;49.794;9.722;2023-02-08T12:39:51;27.87;;;14.57;;
3995;SDS011;2012;49.794;9.722;2023-02-08T12:42:43;19.57;;;12.57;;
3995;SDS011;2012;49.794;9.722;2023-02-08T12:51:08;22.60;;;12.50;;
3995;SDS011;2012;49.794;9.722;2023-02-08T12:53:51;20.67;;;12.03;;
3995;SDS011;2012;49.794;9.722;2023-02-08T12:56:39;31.63;;;12.60;;
3995;SDS011;2012;49.794;9.722;2023-02-08T12:59:27;17.40;;;11.50;;
3995;SDS011;2012;49.794;9.722;2023-02-08T13:01:59;19.30;;;12.30;;
3995;SDS011;2012;49.794;9.722;2023-02-08T13:04:38;30.90;;;12.73;;
3995;SDS011;2012;49.794;9.722;2023-02-08T13:07:18;22.40;;;10.87;;
3995;SDS011;2012;49.794;9.722;2023-02-08T13:12:47;19.30;;;11.77;;
3995;SDS011;2012;49.794;9.722;2023-02-08T13:20:46;16.03;;;10.57;;
3995;SDS011;2012;49.794;9.722;2023-02-08T13:23:39;20.93;;;10.93;;
3995;SDS011;2012;49.794;9.722;2023-02-08T13:26:19;17.87;;;10.97;;
3995;SDS011;2012;49.794;9.722;2023-02-08T13:28:59;17.83;;;10.23;;
3995;SDS011;2012;49.794;9.722;2023-02-08T13:31:29;21.03;;;11.17;;
3995;SDS011;2012;49.794;9.722;2023-02-08T13:34:34;15.40;;;10.70;;
3995;SDS011;2012;49.794;9.722;2023-02-08T13:37:21;16.03;;;10.60;;
3995;SDS011;2012;49.794;9.722;2023-02-08T13:42:40;23.37;;;13.43;;
3995;SDS011;2012;49.794;9.722;2023-02-08T13:45:21;16.60;;;10.50;;
3995;SDS011;2012;49.794;9.722;2023-02-08T13:48:11;13.33;;;8.77;;
3995;SDS011;2012;49.794;9.722;2023-02-08T13:56:10;16.13;;;10.17;;
3995;SDS011;2012;49.794;9.722;2023-02-08T14:01:23;19.13;;;10.50;;
3995;SDS011;2012;49.794;9.722;2023-02-08T14:06:43;16.60;;;10.73;;
3995;SDS011;2012;49.794;9.722;2023-02-08T14:09:18;17.43;;;10.57;;
3995;SDS011;2012;49.794;9.722;2023-02-08T14:12:02;17.33;;;11.57;;
3995;SDS011;2012;49.794;9.722;2023-02-08T14:15:05;16.93;;;10.50;;
3995;SDS011;2012;49.794;9.722;2023-02-08T14:17:44;21.93;;;11.80;;
3995;SDS011;2012;49.794;9.722;2023-02-08T14:20:28;16.60;;;11.33;;
3995;SDS011;2012;49.794;9.722;2023-02-08T14:25:49;19.97;;;10.53;;
3995;SDS011;2012;49.794;9.722;2023-02-08T14:28:31;13.20;;;9.60;;
3995;SDS011;2012;49.794;9.722;2023-02-08T14:31:03;17.13;;;9.90;;
3995;SDS011;2012;49.794;9.722;2023-02-08T14:33:43;16.70;;;10.47;;
3995;SDS011;2012;49.794;9.722;2023-02-08T14:36:24;15.60;;;9.23;;
3995;SDS011;2012;49.794;9.722;2023-02-08T14:41:41;22.13;;;11.30;;
3995;SDS011;2012;49.794;9.722;2023-02-08T14:49:51;14.10;;;8.77;;
3995;SDS011;2012;49.794;9.722;2023-02-08T14:52:29;19.27;;;9.63;;
3995;SDS011;2012;49.794;9.722;2023-02-08T14:55:05;17.93;;;8.97;;
3995;SDS011;2012;49.794;9.722;2023-02-08T14:57:38;13.97;;;8.87;;
3995;SDS011;2012;49.794;9.722;2023-02-08T15:00:07;17.83;;;9.80;;
3995;SDS011;2012;49.794;9.722;2023-02-08T15:02:46;16.07;;;9.50;;
3995;SDS011;2012;49.794;9.722;2023-02-08T15:05:30;13.13;;;8.40;;
3995;SDS011;2012;49.794;9.722;2023-02-08T15:08:05;17.07;;;9.53;;
3995;SDS011;2012;49.794;9.722;2023-02-08T15:10:32;14.70;;;9.57;;
3995;SDS011;2012;49.794;9.722;2023-02-08T15:13:01;15.30;;;9.57;;
3995;SDS011;2012;49.794;9.722;2023-02-08T15:15:33;22.70;;;9.73;;
3995;SDS011;2012;49.794;9.722;2023-02-08T15:18:14;14.57;;;9.43;;
3995;SDS011;2012;49.794;9.722;2023-02-08T15:20:45;21.27;;;10.03;;
3995;SDS011;2012;49.794;9.722;2023-02-08T15:23:26;19.23;;;10.33;;
3995;SDS011;2012;49.794;9.722;2023-02-08T15:25:54;27.07;;;12.17;;
3995;SDS011;2012;49.794;9.722;2023-02-08T15:28:28;18.03;;;10.20;;
3995;SDS011;2012;49.794;9.722;2023-02-08T15:30:59;19.63;;;11.03;;
3995;SDS011;2012;49.794;9.722;2023-02-08T15:33:38;16.47;;;10.20;;
3995;SDS011;2012;49.794;9.722;2023-02-08T15:36:12;24.50;;;11.00;;
3995;SDS011;2012;49.794;9.722;2023-02-08T15:38:46;18.63;;;9.50;;
3995;SDS011;2012;49.794;9.722;2023-02-08T15:41:15;15.60;;;9.20;;
3995;SDS011;2012;49.794;9.722;2023-02-08T15:43:50;18.47;;;9.90;;
3995;SDS011;2012;49.794;9.722;2023-02-08T15:46:27;12.93;;;9.10;;
3995;SDS011;2012;49.794;9.722;2023-02-08T15:48:54;14.07;;;9.23;;
3995;SDS011;2012;49.794;9.722;2023-02-08T15:51:22;13.73;;;9.30;;
3995;SDS011;2012;49.794;9.722;2023-02-08T15:53:51;18.37;;;10.23;;
3995;SDS011;2012;49.794;9.722;2023-02-08T15:56:21;18.63;;;10.47;;
3995;SDS011;2012;49.794;9.722;2023-02-08T15:59:03;20.50;;;10.83;;
3995;SDS011;2012;49.794;9.722;2023-02-08T16:01:31;17.37;;;10.37;;
3995;SDS011;2012;49.794;9.722;2023-02-08T16:03:59;18.73;;;10.40;;
3995;SDS011;2012;49.794;9.722;2023-02-08T16:06:36;22.00;;;10.83;;
3995;SDS011;2012;49.794;9.722;2023-02-08T16:09:05;27.63;;;11.93;;
3995;SDS011;2012;49.794;9.722;2023-02-08T16:11:32;21.17;;;11.87;;
3995;SDS011;2012;49.794;9.722;2023-02-08T16:14:02;19.87;;;11.90;;
3995;SDS011;2012;49.794;9.722;2023-02-08T16:16:44;22.87;;;12.70;;
3995;SDS011;2012;49.794;9.722;2023-02-08T16:21:56;28.20;;;16.20;;
3995;SDS011;2012;49.794;9.722;2023-02-08T16:24:46;23.90;;;14.93;;
3995;SDS011;2012;49.794;9.722;2023-02-08T16:27:25;42.93;;;20.23;;
3995;SDS011;2012;49.794;9.722;2023-02-08T16:29:55;34.50;;;16.93;;
3995;SDS011;2012;49.794;9.722;2023-02-08T16:32:26;33.93;;;18.37;;
3995;SDS011;2012;49.794;9.722;2023-02-08T16:34:56;26.70;;;14.67;;
3995;SDS011;2012;49.794;9.722;2023-02-08T16:37:27;25.50;;;13.47;;
3995;SDS011;2012;49.794;9.722;2023-02-08T16:39:57;20.13;;;13.00;;
3995;SDS011;2012;49.794;9.722;2023-02-08T16:42:31;21.17;;;12.00;;
3995;SDS011;2012;49.794;9.722;2023-02-08T16:47:35;21.63;;;11.80;;
3995;SDS011;2012;49.794;9.722;2023-02-08T16:50:21;20.00;;;11.20;;
3995;SDS011;2012;49.794;9.722;2023-02-08T16:52:50;22.53;;;12.70;;
3995;SDS011;2012;49.794;9.722;2023-02-08T16:55:25;17.17;;;9.37;;
3995;SDS011;2012;49.794;9.722;2023-02-08T16:57:56;32.17;;;10.17;;
3995;SDS011;2012;49.794;9.722;2023-02-08T17:02:59;17.17;;;9.73;;
3995;SDS011;2012;49.794;9.722;2023-02-08T17:05:27;21.47;;;9.47;;
3995;SDS011;2012;49.794;9.722;2023-02-08T17:07:57;16.30;;;8.90;;
3995;SDS011;2012;49.794;9.722;2023-02-08T17:10:25;26.90;;;9.20;;
3995;SDS011;2012;49.794;9.722;2023-02-08T17:12:54;18.33;;;9.53;;
3995;SDS011;2012;49.794;9.722;2023-02-08T17:15:41;19.90;;;9.13;;
3995;SDS011;2012;49.794;9.722;2023-02-08T17:18:09;29.57;;;10.57;;
3995;SDS011;2012;49.794;9.722;2023-02-08T17:20:37;21.40;;;10.23;;